createdAt,value
2018-09-28T00:01:56.383Z,5.42
2018-09-28T00:04:24.465Z,5.15
2018-09-28T00:06:52.545Z,7.10
2018-09-28T00:09:20.605Z,6.47
2018-09-28T00:11:48.675Z,5.95
2018-09-28T00:14:16.742Z,5.25
2018-09-28T00:16:44.816Z,4.83
2018-09-28T00:19:12.881Z,4.40
2018-09-28T00:21:40.945Z,4.22
2018-09-28T00:24:09.048Z,4.08
2018-09-28T00:26:37.149Z,4.58
2018-09-28T00:29:05.214Z,5.72
2018-09-28T00:31:33.312Z,5.70
2018-09-28T00:34:01.391Z,5.75
2018-09-28T00:36:29.465Z,5.33
2018-09-28T00:38:57.531Z,5.70
2018-09-28T00:41:25.609Z,4.92
2018-09-28T00:43:53.678Z,6.78
2018-09-28T00:46:21.753Z,7.87
2018-09-28T00:48:49.825Z,5.75
2018-09-28T00:51:17.933Z,5.60
2018-09-28T00:53:46.030Z,4.97
2018-09-28T00:56:14.090Z,5.20
2018-09-28T00:58:42.150Z,4.42
2018-09-28T01:01:10.235Z,6.25
2018-09-28T01:03:38.317Z,5.90
2018-09-28T01:06:06.402Z,4.33
2018-09-28T01:08:34.502Z,5.53
2018-09-28T01:11:02.574Z,4.75
2018-09-28T01:13:30.640Z,6.35
2018-09-28T01:15:58.710Z,4.05
2018-09-28T01:18:26.773Z,6.62
2018-09-28T01:20:54.840Z,3.65
2018-09-28T01:23:22.901Z,4.87
2018-09-28T01:25:50.971Z,2.42
2018-09-28T01:28:19.037Z,3.90
2018-09-28T01:30:47.109Z,3.98
2018-09-28T01:33:15.226Z,3.15
2018-09-28T01:35:43.317Z,4.65
2018-09-28T01:38:11.394Z,5.47
2018-09-28T01:40:39.477Z,4.05
2018-09-28T01:43:07.556Z,3.52
2018-09-28T01:45:35.742Z,3.08
2018-09-28T01:48:03.821Z,4.10
2018-09-28T01:50:31.999Z,7.12
2018-09-28T01:53:00.070Z,3.90
2018-09-28T01:55:28.138Z,3.45
2018-09-28T01:57:56.221Z,4.42
2018-09-28T02:00:24.322Z,3.05
2018-09-28T02:02:52.397Z,2.02
2018-09-28T02:05:20.486Z,2.25
2018-09-28T02:07:48.581Z,2.98
2018-09-28T02:10:16.645Z,3.20
2018-09-28T02:12:44.718Z,2.25
2018-09-28T02:15:12.803Z,1.57
2018-09-28T02:17:40.881Z,3.05
2018-09-28T02:20:08.955Z,2.33
2018-09-28T02:22:37.017Z,2.87
2018-09-28T02:25:05.089Z,4.42
2018-09-28T02:27:33.153Z,3.33
2018-09-28T02:30:01.214Z,3.75
2018-09-28T02:32:29.337Z,2.55
2018-09-28T02:34:57.401Z,2.33
2018-09-28T02:37:25.472Z,3.40
2018-09-28T02:39:53.533Z,1.40
2018-09-28T02:42:21.605Z,2.95
2018-09-28T02:44:49.661Z,1.90
2018-09-28T02:47:17.734Z,4.75
2018-09-28T02:49:45.792Z,3.15
2018-09-28T02:52:13.870Z,3.47
2018-09-28T02:54:41.935Z,2.70
2018-09-28T02:57:10.000Z,2.98
2018-09-28T02:59:38.082Z,2.12
2018-09-28T03:02:06.265Z,2.33
2018-09-28T03:04:34.325Z,2.37
2018-09-28T03:07:02.401Z,1.85
2018-09-28T03:09:30.464Z,2.00
2018-09-28T03:11:58.525Z,2.85
2018-09-28T03:14:26.598Z,3.47
2018-09-28T03:16:54.669Z,3.98
2018-09-28T03:19:22.722Z,3.47
2018-09-28T03:21:50.789Z,2.65
2018-09-28T03:24:18.853Z,2.83
2018-09-28T03:26:46.917Z,2.40
2018-09-28T03:29:14.978Z,2.02
2018-09-28T03:31:43.078Z,2.05
2018-09-28T03:34:11.341Z,2.50
2018-09-28T03:36:39.406Z,3.65
2018-09-28T03:39:07.794Z,3.05
2018-09-28T03:41:35.853Z,4.12
2018-09-28T03:44:03.933Z,2.65
2018-09-28T03:46:32.086Z,6.12
2018-09-28T03:49:00.155Z,5.60
2018-09-28T03:51:28.223Z,3.85
2018-09-28T03:53:56.289Z,5.75
2018-09-28T03:56:24.350Z,6.97
2018-09-28T03:58:52.434Z,3.42
2018-09-28T04:01:20.489Z,3.98
2018-09-28T04:03:48.577Z,3.12
2018-09-28T04:06:16.638Z,3.75
2018-09-28T04:08:44.718Z,2.83
2018-09-28T04:11:12.833Z,6.97
2018-09-28T04:13:40.939Z,2.45
2018-09-28T04:16:09.030Z,3.55
2018-09-28T04:18:37.114Z,5.33
2018-09-28T04:21:05.177Z,3.50
2018-09-28T04:23:33.248Z,3.50
2018-09-28T04:26:01.310Z,4.45
2018-09-28T04:28:29.385Z,4.05
2018-09-28T04:30:57.463Z,3.47
2018-09-28T04:33:25.617Z,4.70
2018-09-28T04:35:53.677Z,2.83
2018-09-28T04:38:21.752Z,4.95
2018-09-28T04:40:49.821Z,5.12
2018-09-28T04:43:17.881Z,5.53
2018-09-28T04:45:45.981Z,3.90
2018-09-28T04:48:14.044Z,6.97
2018-09-28T04:50:42.104Z,3.17
2018-09-28T04:53:10.181Z,5.87
2018-09-28T04:55:38.251Z,4.10
2018-09-28T04:58:06.329Z,3.67
2018-09-28T05:00:34.389Z,4.33
2018-09-28T05:03:02.461Z,3.62
2018-09-28T05:05:30.537Z,6.45
2018-09-28T05:07:58.609Z,4.92
2018-09-28T05:10:26.663Z,3.45
2018-09-28T05:12:54.747Z,3.87
2018-09-28T05:15:22.838Z,4.65
2018-09-28T05:17:50.960Z,5.03
2018-09-28T05:20:19.047Z,3.35
2018-09-28T05:22:47.133Z,5.00
2018-09-28T05:25:15.275Z,2.50
2018-09-28T05:27:43.319Z,2.92
2018-09-28T05:30:11.397Z,4.90
2018-09-28T05:32:39.640Z,2.45
2018-09-28T05:35:07.605Z,5.62
2018-09-28T05:37:35.669Z,5.55
2018-09-28T05:40:03.781Z,3.85
2018-09-28T05:42:31.846Z,2.70
2018-09-28T05:44:59.929Z,2.85
2018-09-28T05:47:28.003Z,4.65
2018-09-28T05:49:56.109Z,3.10
2018-09-28T05:52:24.180Z,5.45
2018-09-28T05:54:52.248Z,3.92
2018-09-28T05:57:20.321Z,5.17
2018-09-28T05:59:53.699Z,3.50
2018-09-28T06:02:27.197Z,2.90
2018-09-28T06:05:00.717Z,3.75
2018-09-28T06:07:28.800Z,5.80
2018-09-28T06:09:56.878Z,3.72
2018-09-28T06:12:24.966Z,3.92
2018-09-28T06:14:53.071Z,4.80
2018-09-28T06:17:21.154Z,3.47
2018-09-28T06:19:49.257Z,3.87
2018-09-28T06:22:17.346Z,5.62
2018-09-28T06:24:45.448Z,3.27
2018-09-28T06:27:13.517Z,3.40
2018-09-28T06:29:41.631Z,3.33
2018-09-28T06:32:09.706Z,4.95
2018-09-28T06:34:37.798Z,2.62
2018-09-28T06:37:05.870Z,4.37
2018-09-28T06:39:33.975Z,2.83
2018-09-28T06:42:02.130Z,4.17
2018-09-28T06:44:30.227Z,2.25
2018-09-28T06:46:58.273Z,3.10
2018-09-28T06:49:26.363Z,4.53
2018-09-28T06:51:54.433Z,3.27
2018-09-28T06:54:22.517Z,6.97
2018-09-28T06:56:50.585Z,5.05
2018-09-28T06:59:18.662Z,4.00
2018-09-28T07:01:46.714Z,2.87
2018-09-28T07:04:14.793Z,3.55
2018-09-28T07:06:42.881Z,5.10
2018-09-28T07:09:12.509Z,6.58
2018-09-28T07:11:40.866Z,3.42
2018-09-28T07:14:09.458Z,3.02
2018-09-28T07:16:37.565Z,3.62
2018-09-28T07:19:05.869Z,4.20
2018-09-28T07:21:33.956Z,4.25
2018-09-28T07:24:02.195Z,5.75
2018-09-28T07:26:30.201Z,3.75
2018-09-28T07:28:58.334Z,4.75
2018-09-28T07:31:26.445Z,4.45
2018-09-28T07:33:54.558Z,7.40
2018-09-28T07:36:22.735Z,5.17
2018-09-28T07:38:50.738Z,5.40
2018-09-28T07:41:18.816Z,4.33
2018-09-28T07:43:46.877Z,7.80
2018-09-28T07:46:14.959Z,5.65
2018-09-28T07:48:43.049Z,7.67
2018-09-28T07:51:11.642Z,6.67
2018-09-28T07:53:39.718Z,6.20
2018-09-28T07:56:07.875Z,8.60
2018-09-28T07:58:35.966Z,8.25
2018-09-28T08:01:04.060Z,8.63
2018-09-28T08:03:32.164Z,7.37
2018-09-28T08:06:00.874Z,6.80
2018-09-28T08:08:28.975Z,7.28
2018-09-28T08:10:57.058Z,5.85
2018-09-28T08:13:25.150Z,7.10
2018-09-28T08:15:53.248Z,5.03
2018-09-28T08:18:22.429Z,6.90
2018-09-28T08:20:50.819Z,9.75
2018-09-28T08:23:19.115Z,8.33
2018-09-28T08:25:47.194Z,4.62
2018-09-28T08:28:15.277Z,10.63
2018-09-28T08:30:44.418Z,6.80
2018-09-28T08:33:12.514Z,6.95
2018-09-28T08:35:40.619Z,7.00
2018-09-28T08:38:08.707Z,12.40
2018-09-28T08:40:36.852Z,9.63
2018-09-28T08:43:05.107Z,7.72
2018-09-28T08:45:33.458Z,9.20
2018-09-28T08:48:01.578Z,12.18
2018-09-28T08:50:29.805Z,14.10
2018-09-28T08:52:58.081Z,12.90
2018-09-28T08:55:26.157Z,10.05
2018-09-28T08:57:54.220Z,9.15
2018-09-28T09:00:22.818Z,6.35
2018-09-28T09:02:50.890Z,7.80
2018-09-28T09:05:19.069Z,7.17
2018-09-28T09:07:47.279Z,5.80
2018-09-28T09:10:15.454Z,7.35
2018-09-28T09:12:43.570Z,6.75
2018-09-28T09:15:11.641Z,5.15
2018-09-28T09:17:39.737Z,4.97
2018-09-28T09:20:07.870Z,6.00
2018-09-28T09:22:36.061Z,5.22
2018-09-28T09:25:04.151Z,8.28
2018-09-28T09:27:32.297Z,4.72
2018-09-28T09:30:00.406Z,4.28
2018-09-28T09:32:28.502Z,4.95
2018-09-28T09:34:56.590Z,4.37
2018-09-28T09:37:24.782Z,4.60
2018-09-28T09:39:52.921Z,4.70
2018-09-28T09:42:21.048Z,2.83
2018-09-28T09:44:49.159Z,4.62
2018-09-28T09:47:17.258Z,4.80
2018-09-28T09:49:45.365Z,4.95
2018-09-28T09:52:13.479Z,4.97
2018-09-28T09:54:41.569Z,4.58
2018-09-28T09:57:09.685Z,10.82
2018-09-28T09:59:37.760Z,6.33
2018-09-28T10:02:11.366Z,3.67
2018-09-28T10:04:39.463Z,3.60
2018-09-28T10:07:07.799Z,4.37
2018-09-28T10:09:36.027Z,5.05
2018-09-28T10:12:04.125Z,7.00
2018-09-28T10:14:32.229Z,4.75
2018-09-28T10:17:00.316Z,5.87
2018-09-28T10:19:28.396Z,8.53
2018-09-28T10:21:56.481Z,7.05
2018-09-28T10:24:24.553Z,8.45
2018-09-28T10:26:52.638Z,6.67
2018-09-28T10:29:20.727Z,5.25
2018-09-28T10:31:48.838Z,6.92
2018-09-28T10:34:16.998Z,6.30
2018-09-28T10:36:45.070Z,9.13
2018-09-28T10:39:13.192Z,9.33
2018-09-28T10:41:41.323Z,16.45
2018-09-28T10:44:09.429Z,4.72
2018-09-28T10:46:37.685Z,8.35
2018-09-28T10:49:05.778Z,10.23
2018-09-28T10:51:33.882Z,10.68
2018-09-28T10:54:01.946Z,11.90
2018-09-28T10:56:30.066Z,18.70
2018-09-28T10:58:58.198Z,15.08
2018-09-28T11:01:26.233Z,14.28
2018-09-28T11:03:54.315Z,13.10
2018-09-28T11:06:22.398Z,10.63
2018-09-28T11:08:50.497Z,12.20
2018-09-28T11:11:18.566Z,11.80
2018-09-28T11:13:46.654Z,12.15
2018-09-28T11:16:14.747Z,10.53
2018-09-28T11:18:42.845Z,11.08
2018-09-28T11:21:11.037Z,10.85
2018-09-28T11:23:39.069Z,10.55
2018-09-28T11:26:07.381Z,13.08
2018-09-28T11:28:35.521Z,14.60
2018-09-28T11:31:03.594Z,10.20
2018-09-28T11:33:31.748Z,6.97
2018-09-28T11:36:00.116Z,7.50
2018-09-28T11:38:28.190Z,9.40
2018-09-28T11:40:56.266Z,16.73
2018-09-28T11:43:24.382Z,12.00
2018-09-28T11:45:52.492Z,12.05
2018-09-28T11:48:20.536Z,10.45
2018-09-28T11:50:48.605Z,10.70
2018-09-28T11:53:16.724Z,8.50
2018-09-28T11:55:44.877Z,6.15
2018-09-28T11:58:12.961Z,11.20
2018-09-28T12:00:41.033Z,11.45
2018-09-28T12:03:09.120Z,11.60
2018-09-28T12:05:37.197Z,8.23
2018-09-28T12:08:05.350Z,5.85
2018-09-28T12:10:33.429Z,8.23
2018-09-28T12:13:01.514Z,6.92
2018-09-28T12:15:29.611Z,6.97
2018-09-28T12:17:57.925Z,7.22
2018-09-28T12:20:25.993Z,6.85
2018-09-28T12:22:54.089Z,4.62
2018-09-28T12:25:22.272Z,7.28
2018-09-28T12:27:50.425Z,5.53
2018-09-28T12:30:18.501Z,8.53
2018-09-28T12:32:46.672Z,11.78
2018-09-28T12:35:14.757Z,10.13
2018-09-28T12:37:42.924Z,13.13
2018-09-28T12:40:11.017Z,5.50
2018-09-28T12:42:39.148Z,5.50
2018-09-28T12:45:07.363Z,4.95
2018-09-28T12:47:35.376Z,9.93
2018-09-28T12:50:03.488Z,7.80
2018-09-28T12:52:31.625Z,11.35
2018-09-28T12:54:59.704Z,9.28
2018-09-28T12:57:27.789Z,6.15
2018-09-28T12:59:55.937Z,9.48
2018-09-28T13:02:24.014Z,8.55
2018-09-28T13:04:52.131Z,8.75
2018-09-28T13:07:20.224Z,7.33
2018-09-28T13:09:48.332Z,4.97
2018-09-28T13:12:16.488Z,5.78
2018-09-28T13:14:44.696Z,7.33
2018-09-28T13:17:12.762Z,7.00
2018-09-28T13:19:40.870Z,5.90
2018-09-28T13:22:08.968Z,4.37
2018-09-28T13:24:37.110Z,5.50
2018-09-28T13:27:05.238Z,8.35
2018-09-28T13:29:33.397Z,9.90
2018-09-28T13:32:01.482Z,9.88
2018-09-28T13:34:29.562Z,4.97
2018-09-28T13:36:57.629Z,8.48
2018-09-28T13:39:25.782Z,7.92
2018-09-28T13:41:53.860Z,12.18
2018-09-28T13:44:22.013Z,7.33
2018-09-28T13:46:50.159Z,5.20
2018-09-28T13:49:18.225Z,4.83
2018-09-28T13:51:46.385Z,7.72
2018-09-28T13:54:14.508Z,10.15
2018-09-28T13:56:42.617Z,9.58
2018-09-28T13:59:10.661Z,8.28
2018-09-28T14:01:38.752Z,9.70
2018-09-28T14:04:07.080Z,8.68
2018-09-28T14:06:35.224Z,8.88
2018-09-28T14:09:03.270Z,9.08
2018-09-28T14:11:31.345Z,7.10
2018-09-28T14:13:59.952Z,7.80
2018-09-28T14:16:28.108Z,12.55
2018-09-28T14:18:56.203Z,7.75
2018-09-28T14:21:24.282Z,7.58
2018-09-28T14:23:52.465Z,11.65
2018-09-28T14:26:20.660Z,11.95
2018-09-28T14:28:48.798Z,6.20
2018-09-28T14:31:16.856Z,12.82
2018-09-28T14:33:44.982Z,10.32
2018-09-28T14:36:13.107Z,9.00
2018-09-28T14:38:41.284Z,6.20
2018-09-28T14:41:09.325Z,7.10
2018-09-28T14:43:37.439Z,6.25
2018-09-28T14:46:05.597Z,6.65
2018-09-28T14:48:33.721Z,6.05
2018-09-28T14:51:01.781Z,4.67
2018-09-28T14:53:29.850Z,4.75
2018-09-28T14:55:58.026Z,3.83
2018-09-28T14:58:26.143Z,8.25
2018-09-28T15:00:54.399Z,6.87
2018-09-28T15:03:22.318Z,8.23
2018-09-28T15:05:50.416Z,7.50
2018-09-28T15:08:18.605Z,6.80
2018-09-28T15:10:46.704Z,4.17
2018-09-28T15:13:14.750Z,5.45
2018-09-28T15:15:42.837Z,4.22
2018-09-28T15:18:10.924Z,3.87
2018-09-28T15:20:39.001Z,6.22
2018-09-28T15:23:07.066Z,5.47
2018-09-28T15:25:35.148Z,5.00
2018-09-28T15:28:03.226Z,3.65
2018-09-28T15:30:31.291Z,5.72
2018-09-28T15:32:59.366Z,4.12
2018-09-28T15:35:27.446Z,7.95
2018-09-28T15:37:55.597Z,11.15
2018-09-28T15:40:23.666Z,4.65
2018-09-28T15:42:51.762Z,4.85
2018-09-28T15:45:19.853Z,5.15
2018-09-28T15:47:47.993Z,4.62
2018-09-28T15:50:22.840Z,4.40
2018-09-28T15:52:50.926Z,7.28
2018-09-28T15:55:19.012Z,6.15
2018-09-28T15:57:47.080Z,3.50
2018-09-28T16:00:15.152Z,6.15
2018-09-28T16:02:43.269Z,3.77
2018-09-28T16:05:11.351Z,5.55
2018-09-28T16:07:39.414Z,5.33
2018-09-28T16:10:07.505Z,3.90
2018-09-28T16:12:35.637Z,4.20
2018-09-28T16:15:04.140Z,3.77
2018-09-28T16:17:32.645Z,2.25
2018-09-28T16:20:00.854Z,3.25
2018-09-28T16:22:29.233Z,3.80
2018-09-28T16:24:57.645Z,3.37
2018-09-28T16:27:32.580Z,3.62
2018-09-28T16:30:00.848Z,3.90
2018-09-28T16:32:29.373Z,3.22
2018-09-28T16:34:58.009Z,3.25
2018-09-28T16:37:26.613Z,2.02
2018-09-28T16:39:55.033Z,4.10
2018-09-28T16:42:23.654Z,2.27
2018-09-28T16:44:52.040Z,1.60
2018-09-28T16:47:20.569Z,2.40
2018-09-28T16:49:48.952Z,2.90
2018-09-28T16:52:17.322Z,2.10
2018-09-28T16:54:45.724Z,3.50
2018-09-28T16:57:14.058Z,5.37
2018-09-28T16:59:42.426Z,2.50
2018-09-28T17:02:10.688Z,1.85
2018-09-28T17:04:38.926Z,3.15
2018-09-28T17:07:07.175Z,2.00
2018-09-28T17:09:36.327Z,3.55
2018-09-28T17:12:04.594Z,3.37
2018-09-28T17:14:33.890Z,3.12
2018-09-28T17:17:02.271Z,3.67
2018-09-28T17:19:30.337Z,3.40
2018-09-28T17:21:58.658Z,2.08
2018-09-28T17:24:27.114Z,2.75
2018-09-28T17:26:56.107Z,2.80
2018-09-28T17:29:24.409Z,2.95
2018-09-28T17:31:52.745Z,1.35
2018-09-28T17:34:21.039Z,2.60
2018-09-28T17:36:49.305Z,1.30
2018-09-28T17:39:17.615Z,1.77
2018-09-28T17:41:45.761Z,2.60
2018-09-28T17:44:14.096Z,4.50
2018-09-28T17:46:42.402Z,3.47
2018-09-28T17:49:10.760Z,1.65
2018-09-28T17:51:39.470Z,1.55
2018-09-28T17:54:07.822Z,2.80
2018-09-28T17:56:35.986Z,1.85
2018-09-28T17:59:04.354Z,2.35
2018-09-28T18:01:32.679Z,1.25
2018-09-28T18:04:00.814Z,1.92
2018-09-28T18:06:28.912Z,1.72
2018-09-28T18:08:57.046Z,2.42
2018-09-28T18:11:25.321Z,2.17
2018-09-28T18:13:53.445Z,4.25
2018-09-28T18:16:21.542Z,2.75
2018-09-28T18:18:49.662Z,1.40
2018-09-28T18:21:17.739Z,3.58
2018-09-28T18:23:45.848Z,2.35
2018-09-28T18:26:13.921Z,2.33
2018-09-28T18:28:42.033Z,2.62
2018-09-28T18:31:10.093Z,2.17
2018-09-28T18:33:38.254Z,2.05
2018-09-28T18:36:06.339Z,1.75
2018-09-28T18:38:34.405Z,1.55
2018-09-28T18:41:02.520Z,3.40
2018-09-28T18:43:30.673Z,1.90
2018-09-28T18:45:58.742Z,2.72
2018-09-28T18:48:26.877Z,2.80
2018-09-28T18:50:54.937Z,3.35
2018-09-28T18:53:23.030Z,2.10
2018-09-28T18:55:51.101Z,2.77
2018-09-28T18:58:19.175Z,2.83
2018-09-28T19:00:47.242Z,2.22
2018-09-28T19:03:15.339Z,4.65
2018-09-28T19:05:43.434Z,1.70
2018-09-28T19:08:11.521Z,3.00
2018-09-28T19:10:39.621Z,2.47
2018-09-28T19:13:07.740Z,1.57
2018-09-28T19:15:35.789Z,1.70
2018-09-28T19:18:03.904Z,1.25
2018-09-28T19:20:31.981Z,1.62
2018-09-28T19:23:00.078Z,1.50
2018-09-28T19:25:28.164Z,1.80
2018-09-28T19:27:56.237Z,2.17
2018-09-28T19:30:24.300Z,3.05
2018-09-28T19:32:52.386Z,3.60
2018-09-28T19:35:20.505Z,3.33
2018-09-28T19:37:48.574Z,3.62
2018-09-28T19:40:16.681Z,5.20
2018-09-28T19:42:44.777Z,2.05
2018-09-28T19:45:12.913Z,2.50
2018-09-28T19:47:41.021Z,2.35
2018-09-28T19:50:09.164Z,4.03
2018-09-28T19:52:37.250Z,1.70
2018-09-28T19:55:05.385Z,1.45
2018-09-28T19:57:33.457Z,1.27
2018-09-28T20:00:01.566Z,1.82
2018-09-28T20:02:29.697Z,1.85
2018-09-28T20:04:57.785Z,2.72
2018-09-28T20:07:25.873Z,1.85
2018-09-28T20:09:53.958Z,4.15
2018-09-28T20:12:22.029Z,4.97
2018-09-28T20:14:50.157Z,3.98
2018-09-28T20:17:18.230Z,3.80
2018-09-28T20:19:46.297Z,3.83
2018-09-28T20:22:14.662Z,1.45
2018-09-28T20:24:42.729Z,1.20
2018-09-28T20:27:10.805Z,2.30
2018-09-28T20:29:39.082Z,3.67
2018-09-28T20:32:07.196Z,3.10
2018-09-28T20:34:35.279Z,2.02
2018-09-28T20:37:03.481Z,2.20
2018-09-28T20:39:31.573Z,2.00
2018-09-28T20:41:59.625Z,1.90
2018-09-28T20:44:27.698Z,1.52
2018-09-28T20:46:55.760Z,1.27
2018-09-28T20:49:23.874Z,1.92
2018-09-28T20:51:51.949Z,3.17
2018-09-28T20:54:20.066Z,1.60
2018-09-28T20:56:48.173Z,2.05
2018-09-28T20:59:16.245Z,1.67
2018-09-28T21:01:44.321Z,1.75
2018-09-28T21:04:12.403Z,3.17
2018-09-28T21:06:40.481Z,1.77
2018-09-28T21:09:09.535Z,2.25
2018-09-28T21:11:37.593Z,2.37
2018-09-28T21:14:05.666Z,1.42
2018-09-28T21:16:33.746Z,3.47
2018-09-28T21:19:01.826Z,1.22
2018-09-28T21:21:29.917Z,1.85
2018-09-28T21:23:57.994Z,3.22
2018-09-28T21:26:26.075Z,1.95
2018-09-28T21:28:54.248Z,1.98
2018-09-28T21:31:22.301Z,2.10
2018-09-28T21:33:50.395Z,2.05
2018-09-28T21:36:18.510Z,3.12
2018-09-28T21:38:46.584Z,2.65
2018-09-28T21:41:14.656Z,1.87
2018-09-28T21:43:42.717Z,1.40
2018-09-28T21:46:10.785Z,2.50
2018-09-28T21:48:38.858Z,1.70
2018-09-28T21:51:06.933Z,2.10
2018-09-28T21:53:35.018Z,1.05
2018-09-28T21:56:03.108Z,1.60
2018-09-28T21:58:31.177Z,7.25
2018-09-28T22:00:59.299Z,2.55
2018-09-28T22:03:27.497Z,1.98
2018-09-28T22:05:55.573Z,3.27
2018-09-28T22:08:23.653Z,1.37
2018-09-28T22:10:51.765Z,1.77
2018-09-28T22:13:19.872Z,1.45
2018-09-28T22:15:47.950Z,1.75
2018-09-28T22:18:16.105Z,1.35
2018-09-28T22:20:44.209Z,1.77
2018-09-28T22:23:12.277Z,2.05
2018-09-28T22:25:40.344Z,3.37
2018-09-28T22:28:08.405Z,2.85
2018-09-28T22:30:36.497Z,1.07
2018-09-28T22:33:04.576Z,2.42
2018-09-28T22:35:32.667Z,2.75
2018-09-28T22:38:00.779Z,1.30
2018-09-28T22:40:28.861Z,2.75
2018-09-28T22:42:56.929Z,1.82
2018-09-28T22:45:24.990Z,1.80
2018-09-28T22:47:53.042Z,1.98
2018-09-28T22:50:21.122Z,2.22
2018-09-28T22:52:49.184Z,3.20
2018-09-28T22:55:17.256Z,2.95
2018-09-28T22:57:45.323Z,2.30
2018-09-28T23:00:13.425Z,4.08
2018-09-28T23:02:41.485Z,2.50
2018-09-28T23:05:09.549Z,2.08
2018-09-28T23:07:37.593Z,1.40
2018-09-28T23:10:05.754Z,1.45
2018-09-28T23:12:33.849Z,1.62
2018-09-28T23:15:01.931Z,1.98
2018-09-28T23:17:29.997Z,2.08
2018-09-28T23:19:58.169Z,1.10
2018-09-28T23:22:26.229Z,1.00
2018-09-28T23:24:54.313Z,2.00
2018-09-28T23:27:22.377Z,2.00
2018-09-28T23:29:50.437Z,2.45
2018-09-28T23:32:18.514Z,2.22
2018-09-28T23:34:46.581Z,2.05
2018-09-28T23:37:14.666Z,2.30
2018-09-28T23:39:42.733Z,1.77
2018-09-28T23:42:10.805Z,1.50
2018-09-28T23:44:38.897Z,2.60
2018-09-28T23:47:06.968Z,3.27
2018-09-28T23:49:35.044Z,3.02
2018-09-28T23:52:03.176Z,2.85
2018-09-28T23:54:31.242Z,2.92
2018-09-28T23:56:59.401Z,1.82
2018-09-28T23:59:27.454Z,1.40
